Time;durP1;ratioP1;P1;durP2;ratioP2;P2;SDS_P1;SDS_P2;PMS_P1;PMS_P2;Temp;Humidity;BMP_temperature;BMP_pressure;BME280_temperature;BME280_humidity;BME280_pressure;Samples;Min_cycle;Max_cycle;Signal;HPM_P1;HPM_P2
2021/10/16 00:03:28;;;;;;;3.70;3.10;;;;;;;9.88;92.79;96526.81;6435294;46;20149;-74
2021/10/16 00:08:30;;;;;;;3.97;3.17;;;;;;;9.75;93.66;96528.91;6435320;46;20107;-73
2021/10/16 00:13:33;;;;;;;4.35;3.50;;;;;;;9.76;93.92;96524.94;6434997;46;20090;-74
2021/10/16 00:18:35;;;;;;;4.32;3.70;;;;;;;9.68;93.93;96533.94;6434558;46;20653;-74
2021/10/16 00:23:38;;;;;;;5.22;3.78;;;;;;;9.69;93.91;96527.16;6434897;46;20086;-71
2021/10/16 00:28:40;;;;;;;6.07;4.20;;;;;;;9.69;94.00;96524.41;6421909;46;20113;-72
2021/10/16 00:33:43;;;;;;;8.40;3.72;;;;;;;9.68;94.36;96531.91;6435335;46;20090;-74
2021/10/16 00:38:46;;;;;;;4.85;3.60;;;;;;;9.72;94.15;96523.53;6434552;46;20664;-75
2021/10/16 00:44:15;;;;;;;4.93;3.90;;;;;;;9.76;93.73;96526.91;6421607;46;20107;-74
2021/10/16 00:49:18;;;;;;;;;;;;;;;9.89;92.63;96533.09;6434850;46;20121;-73
2021/10/16 00:54:21;;;;;;;4.47;3.10;;;;;;;9.79;93.58;96517.75;6434589;46;19982;-73
2021/10/16 00:59:24;;;;;;;4.65;3.50;;;;;;;9.72;93.95;96526.28;6434718;46;20178;-72
2021/10/16 01:04:27;;;;;;;5.13;3.83;;;;;;;9.71;94.08;96519.22;6421822;46;20104;-74
2021/10/16 01:09:29;;;;;;;5.22;4.18;;;;;;;9.72;93.87;96518.78;6434288;46;20134;-73
2021/10/16 01:14:31;;;;;;;4.25;3.83;;;;;;;9.74;94.55;96516.34;6434503;46;20095;-73
2021/10/16 01:19:40;;;;;;;4.43;3.72;;;;;;;9.69;94.99;96519.66;6434315;46;20634;-72
2021/10/16 01:24:43;;;;;;;4.33;3.93;;;;;;;9.73;94.89;96514.78;6434175;46;20094;-74
2021/10/16 01:29:46;;;;;;;3.92;3.53;;;;;;;9.73;95.08;96511.25;6443131;46;20091;-73
2021/10/16 01:34:48;;;;;;;4.30;3.55;;;;;;;9.74;95.21;96510.81;6433863;46;20658;-73
2021/10/16 01:39:51;;;;;;;4.97;3.78;;;;;;;9.73;95.13;96508.47;6434421;46;20136;-74
2021/10/16 01:44:53;;;;;;;4.32;3.08;;;;;;;9.63;95.24;96502.16;6434183;46;20100;-73
2021/10/16 01:49:56;;;;;;;4.18;3.70;;;;;;;9.55;95.80;96505.63;6437182;46;20103;-74
2021/10/16 01:54:58;;;;;;;5.80;3.80;;;;;;;9.46;95.95;96495.31;6443347;46;20604;-73
2021/10/16 02:00:02;;;;;;;4.47;3.67;;;;;;;9.43;96.74;96498.97;6448379;46;20102;-73
2021/10/16 02:05:06;;;;;;;7.57;4.30;;;;;;;9.48;96.72;96498.38;6463692;46;20116;-73
2021/10/16 02:10:08;;;;;;;3.97;3.58;;;;;;;9.49;96.26;96499.16;6438175;46;20099;-73
2021/10/16 02:15:11;;;;;;;6.30;4.38;;;;;;;9.47;96.55;96490.56;6436547;46;20568;-74
2021/10/16 02:20:13;;;;;;;5.95;4.65;;;;;;;9.47;96.41;96490.56;6436450;46;20094;-75
2021/10/16 02:25:16;;;;;;;6.22;4.82;;;;;;;9.45;96.58;96493.00;6435840;46;20091;-75
2021/10/16 02:30:18;;;;;;;8.50;5.13;;;;;;;9.46;96.65;96492.56;6435629;46;20224;-72
2021/10/16 02:35:20;;;;;;;5.97;5.28;;;;;;;9.35;96.38;96504.00;6436359;46;20095;-73
2021/10/16 02:40:23;;;;;;;7.30;5.47;;;;;;;9.56;94.76;96501.66;6436129;46;20511;-73
2021/10/16 02:45:25;;;;;;;7.78;6.22;;;;;;;9.52;94.46;96495.50;6435730;46;20100;-74
2021/10/16 02:50:27;;;;;;;6.70;5.03;;;;;;;9.64;94.00;96497.41;6435498;46;20518;-73
2021/10/16 02:55:30;;;;;;;8.95;5.35;;;;;;;9.73;93.36;96495.47;6435383;46;20095;-75
2021/10/16 03:00:32;;;;;;;6.47;5.05;;;;;;;9.71;94.13;96494.38;6435190;46;20197;-74
2021/10/16 03:05:34;;;;;;;5.22;4.63;;;;;;;9.50;95.37;96493.19;6435113;46;20679;-72
2021/10/16 03:10:37;;;;;;;8.55;5.85;;;;;;;9.41;95.77;96500.66;6422067;46;20086;-73
2021/10/16 03:15:39;;;;;;;9.20;6.00;;;;;;;9.46;95.34;96508.31;6435056;46;20149;-74
2021/10/16 03:20:42;;;;;;;8.68;6.10;;;;;;;9.53;94.51;96508.84;6435169;46;20090;-74
2021/10/16 03:25:44;;;;;;;9.77;5.95;;;;;;;9.67;92.88;96504.78;6434953;46;20621;-73
2021/10/16 03:30:47;;;;;;;7.00;5.47;;;;;;;9.72;92.96;96516.03;6435123;46;20175;-73
2021/10/16 03:35:49;;;;;;;9.90;6.78;;;;;;;9.70;92.43;96517.69;6434682;46;20086;-75
2021/10/16 03:40:51;;;;;;;9.60;5.70;;;;;;;9.62;92.89;96514.41;6437654;46;20100;-73
2021/10/16 03:45:54;;;;;;;7.78;5.78;;;;;;;9.59;93.16;96518.06;6465704;46;20165;-73
2021/10/16 03:50:56;;;;;;;11.10;7.40;;;;;;;9.42;92.85;96510.44;6462805;46;20701;-73
2021/10/16 03:55:59;;;;;;;10.05;6.55;;;;;;;9.38;93.59;96522.38;6460264;46;20139;-74
2021/10/16 04:01:02;;;;;;;11.15;6.25;;;;;;;9.55;92.51;96509.16;6448648;46;20082;-73
2021/10/16 04:06:04;;;;;;;9.90;6.22;;;;;;;9.50;92.78;96506.97;6443705;46;20633;-73
2021/10/16 04:11:07;;;;;;;9.35;6.72;;;;;;;9.51;92.70;96508.53;6442677;46;20179;-73
2021/10/16 04:16:09;;;;;;;7.50;6.25;;;;;;;9.58;91.98;96507.50;6435324;46;20104;-74
2021/10/16 04:21:11;;;;;;;11.45;7.00;;;;;;;9.53;92.71;96503.31;6435655;46;20094;-74
2021/10/16 04:26:14;;;;;;;7.47;5.85;;;;;;;9.52;93.22;96510.06;6434853;46;20082;-73
2021/10/16 04:31:16;;;;;;;8.43;6.05;;;;;;;9.49;93.75;96501.91;6434780;46;20094;-73
2021/10/16 04:36:19;;;;;;;8.18;6.03;;;;;;;9.56;93.93;96499.69;6421434;46;20527;-74
2021/10/16 04:41:21;;;;;;;8.85;6.03;;;;;;;9.43;94.46;96512.00;6435181;46;20090;-74
2021/10/16 04:46:24;;;;;;;8.18;5.68;;;;;;;9.41;94.44;96504.16;6434881;46;20178;-75
2021/10/16 04:51:27;;;;;;;7.07;5.50;;;;;;;9.44;94.57;96506.03;6435657;46;20137;-72
2021/10/16 04:56:29;;;;;;;10.40;6.63;;;;;;;9.42;94.52;96507.69;6435327;46;20671;-73
2021/10/16 05:01:32;;;;;;;7.72;5.85;;;;;;;9.34;94.86;96507.19;6434778;46;20095;-74
2021/10/16 05:06:35;;;;;;;8.88;5.95;;;;;;;9.40;95.02;96513.66;6434815;46;20538;-73
2021/10/16 05:11:37;;;;;;;8.20;5.85;;;;;;;9.30;95.08;96506.53;6435021;46;20086;-75
2021/10/16 05:16:40;;;;;;;7.10;5.75;;;;;;;9.35;94.97;96503.22;6440584;46;20077;-73
2021/10/16 05:21:42;;;;;;;7.40;4.93;;;;;;;9.46;94.40;96503.59;6447963;46;20090;-73
2021/10/16 05:26:44;;;;;;;9.38;5.70;;;;;;;9.35;95.22;96503.22;6458152;46;20617;-73
2021/10/16 05:31:47;;;;;;;8.15;5.57;;;;;;;9.20;95.76;96510.47;6435542;46;20103;-75
2021/10/16 05:36:49;;;;;;;6.93;5.32;;;;;;;9.18;96.00;96521.19;6435593;46;20090;-73
2021/10/16 05:41:51;;;;;;;6.47;5.10;;;;;;;9.22;96.37;96514.31;6435873;46;20601;-73
2021/10/16 05:46:54;;;;;;;7.45;5.82;;;;;;;9.33;96.38;96522.97;6422898;46;20113;-74
2021/10/16 05:51:57;;;;;;;9.07;6.40;;;;;;;9.34;96.64;96523.72;6436158;46;20090;-74
2021/10/16 05:56:59;;;;;;;8.95;6.43;;;;;;;9.43;95.82;96529.31;6435491;46;20125;-75
2021/10/16 06:02:02;;;;;;;8.30;5.65;;;;;;;9.43;95.60;96534.06;6435640;46;20201;-74
2021/10/16 06:07:04;;;;;;;8.60;6.20;;;;;;;9.59;94.83;96537.38;6435453;46;20090;-73
2021/10/16 06:12:06;;;;;;;7.50;5.82;;;;;;;9.66;94.69;96539.88;6435355;46;20085;-74
2021/10/16 06:17:09;;;;;;;9.27;6.40;;;;;;;9.69;94.03;96550.03;6443402;46;20099;-76
2021/10/16 06:22:11;;;;;;;18.20;8.80;;;;;;;9.64;94.97;96556.13;6436438;46;20433;-73
2021/10/16 06:27:14;;;;;;;11.63;7.78;;;;;;;9.73;94.64;96563.69;6438359;46;20090;-74
2021/10/16 06:32:16;;;;;;;10.32;6.82;;;;;;;9.88;94.13;96567.47;6459607;46;20182;-74
2021/10/16 06:37:19;;;;;;;10.55;6.93;;;;;;;9.98;92.75;96569.03;6428960;46;20091;-73
2021/10/16 06:42:21;;;;;;;12.88;6.68;;;;;;;10.29;91.14;96569.09;6435658;46;20091;-73
2021/10/16 06:47:24;;;;;;;15.93;8.10;;;;;;;10.37;90.55;96575.84;6435263;46;20138;-73
2021/10/16 06:52:26;;;;;;;23.75;10.73;;;;;;;10.56;88.78;96583.00;6435366;46;20089;-73
2021/10/16 06:57:29;;;;;;;15.95;9.05;;;;;;;10.62;88.35;96587.47;6436257;46;20091;-73
2021/10/16 07:02:31;;;;;;;13.48;7.40;;;;;;;10.74;87.03;96591.34;6436013;46;20094;-74
2021/10/16 07:07:33;;;;;;;17.30;8.18;;;;;;;10.67;88.13;96588.84;6436276;46;20199;-72
2021/10/16 07:12:36;;;;;;;13.55;8.15;;;;;;;11.04;86.45;96604.28;6435777;46;20099;-73
2021/10/16 07:17:38;;;;;;;13.27;8.57;;;;;;;11.23;85.83;96603.09;6435791;46;20201;-73
2021/10/16 07:22:41;;;;;;;14.70;8.25;;;;;;;11.03;85.58;96591.72;6436026;46;20726;-75
2021/10/16 07:27:45;;;;;;;12.30;8.27;;;;;;;11.32;86.11;96599.56;6435585;46;20090;-72
2021/10/16 07:32:48;;;;;;;10.10;7.00;;;;;;;11.34;85.76;96605.41;6435717;46;20094;-73
2021/10/16 07:37:50;;;;;;;10.43;7.70;;;;;;;11.60;83.47;96600.34;6435514;46;20103;-73
2021/10/16 07:42:53;;;;;;;9.23;7.03;;;;;;;11.65;82.70;96608.00;6435380;46;20099;-73
2021/10/16 07:47:55;;;;;;;10.25;6.57;;;;;;;11.98;81.94;96617.25;6435613;46;20086;-72
2021/10/16 07:52:58;;;;;;;9.27;6.15;;;;;;;11.89;80.95;96606.19;6436083;46;20086;-74
2021/10/16 07:58:02;;;;;;;10.63;6.95;;;;;;;12.02;80.80;96604.00;6421833;46;20090;-73
2021/10/16 08:03:05;;;;;;;8.68;6.38;;;;;;;12.56;79.61;96617.72;6435690;46;20094;-73
2021/10/16 08:08:10;;;;;;;9.65;6.15;;;;;;;12.63;80.29;96620.16;6435034;46;20126;-74
2021/10/16 08:13:12;;;;;;;7.68;5.47;;;;;;;12.56;78.13;96606.63;6435152;46;20094;-73
2021/10/16 08:18:15;;;;;;;7.80;5.40;;;;;;;12.64;76.74;96621.66;6434976;46;20551;-74
2021/10/16 08:23:18;;;;;;;7.68;5.68;;;;;;;12.18;78.89;96631.38;6436078;46;20095;-73
2021/10/16 08:28:22;;;;;;;9.52;6.05;;;;;;;12.49;78.89;96625.56;6433805;46;20634;-73
2021/10/16 08:33:25;;;;;;;7.82;5.57;;;;;;;12.29;78.38;96633.66;6433904;46;20666;-74
2021/10/16 08:38:27;;;;;;;6.97;5.50;;;;;;;12.86;78.55;96627.75;6432647;46;20108;-73
2021/10/16 08:43:30;;;;;;;10.23;6.82;;;;;;;13.04;76.82;96623.31;6434056;46;20099;-74
2021/10/16 08:48:33;;;;;;;6.57;5.15;;;;;;;13.34;78.10;96627.81;6425878;46;20090;-74
2021/10/16 08:53:35;;;;;;;7.53;5.40;;;;;;;13.39;76.18;96633.47;6435166;46;20086;-73
2021/10/16 08:58:38;;;;;;;9.20;5.28;;;;;;;13.35;74.10;96627.31;6445837;46;20086;-74
2021/10/16 09:03:50;;;;;;;7.15;6.22;;;;;;;13.85;74.61;96625.53;6466465;45;20532;-74
2021/10/16 09:09:12;;;;;;;7.25;5.78;;;;;;;14.51;72.05;96626.00;6461545;46;20095;-74
2021/10/16 09:14:23;;;;;;;8.25;4.82;;;;;;;14.52;70.29;96629.56;6462071;46;20180;-74
2021/10/16 09:19:38;;;;;;;7.47;4.88;;;;;;;14.29;72.38;96620.81;6464069;46;20184;-74
2021/10/16 09:24:42;;;;;;;6.10;4.75;;;;;;;15.37;66.03;96619.91;6459918;46;20325;-74
2021/10/16 09:29:47;;;;;;;7.28;5.43;;;;;;;15.65;67.76;96623.84;6441585;46;20095;-74
2021/10/16 09:34:58;;;;;;;7.63;5.68;;;;;;;15.51;67.26;96627.47;6420733;46;20122;-73
2021/10/16 09:40:02;;;;;;;7.82;4.95;;;;;;;16.03;63.18;96628.34;6432622;46;20188;-73
2021/10/16 09:45:07;;;;;;;7.95;5.68;;;;;;;16.10;62.78;96625.13;6431845;46;20091;-75
2021/10/16 09:50:11;;;;;;;11.30;5.88;;;;;;;16.31;64.83;96621.78;6432191;46;20086;-74
2021/10/16 09:55:15;;;;;;;9.60;6.35;;;;;;;14.54;69.95;96630.56;6430082;46;20094;-74
2021/10/16 10:00:17;;;;;;;13.45;6.32;;;;;;;14.43;71.16;96624.09;6432894;46;20091;-74
2021/10/16 10:05:21;;;;;;;6.00;5.18;;;;;;;13.74;73.51;96619.78;6432893;46;20103;-75
2021/10/16 10:10:24;;;;;;;9.57;6.70;;;;;;;13.29;74.66;96617.34;6432854;46;20082;-74
2021/10/16 10:15:26;;;;;;;8.45;5.90;;;;;;;13.51;76.75;96620.59;6434014;46;20099;-73
2021/10/16 10:20:29;;;;;;;7.22;6.00;;;;;;;14.20;74.94;96620.13;6434455;46;20086;-73
2021/10/16 10:25:32;;;;;;;6.68;5.20;;;;;;;15.37;67.63;96615.13;6434222;46;20099;-75
2021/10/16 10:30:34;;;;;;;7.68;5.45;;;;;;;16.53;64.91;96617.69;6434076;46;20559;-74
2021/10/16 10:35:36;;;;;;;9.27;5.82;;;;;;;16.46;66.36;96614.03;6414021;45;20662;-75
2021/10/16 10:41:24;;;;;;;7.25;5.25;;;;;;;16.53;64.60;96615.66;6402883;46;20105;-75
2021/10/16 10:46:28;;;;;;;6.53;5.80;;;;;;;17.06;62.74;96610.22;6427037;46;20099;-75
2021/10/16 10:51:36;;;;;;;7.05;4.82;;;;;;;17.30;61.66;96604.25;6433510;46;20081;-75
2021/10/16 10:56:41;;;;;;;6.85;4.40;;;;;;;18.01;60.28;96614.22;6420489;46;20126;-76
2021/10/16 11:01:58;;;;;;;5.72;4.28;;;;;;;16.77;60.05;96602.16;6420762;46;20530;-75
2021/10/16 11:07:03;;;;;;;11.55;5.03;;;;;;;16.43;62.92;96608.69;6431816;46;20090;-75
2021/10/16 11:12:07;;;;;;;6.00;4.68;;;;;;;16.26;60.35;96602.94;6433523;46;20218;-76
2021/10/16 11:17:15;;;;;;;5.10;3.67;;;;;;;16.15;60.70;96594.50;6431893;46;20179;-75
2021/10/16 11:22:18;;;;;;;5.25;3.90;;;;;;;15.64;63.63;96584.09;6433143;46;20090;-76
2021/10/16 11:27:22;;;;;;;5.10;4.03;;;;;;;15.44;63.67;96581.31;6419837;46;20113;-75
2021/10/16 11:32:25;;;;;;;5.05;4.55;;;;;;;15.24;62.10;96569.38;6431653;46;20091;-76
2021/10/16 11:37:44;;;;;;;4.18;3.60;;;;;;;15.78;61.31;96572.06;6432997;46;20090;-75
2021/10/16 11:42:53;;;;;;;4.30;3.83;;;;;;;15.64;62.45;96569.38;6433173;46;20087;-76
2021/10/16 11:47:58;;;;;;;4.00;3.60;;;;;;;14.87;65.83;96571.91;6431539;46;20099;-76
2021/10/16 11:53:24;;;;;;;4.60;4.07;;;;;;;14.56;65.44;96563.38;6430818;46;20627;-75
2021/10/16 11:58:28;;;;;;;4.43;4.00;;;;;;;14.74;65.47;96554.78;6430122;46;20108;-76
2021/10/16 12:03:38;;;;;;;5.20;3.60;;;;;;;14.78;65.04;96558.13;6430705;46;20104;-76
2021/10/16 12:08:54;;;;;;;3.63;3.10;;;;;;;15.26;63.35;96536.25;6432793;46;20591;-75
2021/10/16 12:13:59;;;;;;;3.38;3.17;;;;;;;15.77;61.29;96536.34;6417584;46;20360;-76
2021/10/16 12:19:04;;;;;;;3.47;3.17;;;;;;;15.15;60.52;96541.69;6430660;46;20086;-75
2021/10/16 12:24:23;;;;;;;4.85;2.80;;;;;;;17.01;61.25;96532.00;6428753;46;20179;-76
2021/10/16 12:29:31;;;;;;;3.53;3.22;;;;;;;17.86;54.67;96519.38;6431645;46;20658;-76
2021/10/16 12:34:35;;;;;;;3.42;2.67;;;;;;;17.04;55.29;96523.41;6430352;46;20533;-76
2021/10/16 12:39:39;;;;;;;3.03;2.00;;;;;;;17.34;53.05;96520.22;6432941;46;20099;-76
2021/10/16 12:44:46;;;;;;;2.75;1.90;;;;;;;17.70;52.39;96508.94;6433157;46;20104;-76
2021/10/16 12:50:01;;;;;;;2.20;2.10;;;;;;;17.68;53.51;96503.09;6428740;46;20090;-76
2021/10/16 12:55:18;;;;;;;2.40;2.20;;;;;;;16.93;51.77;96506.59;6416998;46;20104;-76
2021/10/16 13:00:20;;;;;;;2.13;1.95;;;;;;;16.96;54.21;96505.56;6418779;46;20091;-76
2021/10/16 13:05:24;;;;;;;2.60;2.40;;;;;;;17.19;51.50;96495.28;6432607;46;20093;-76
2021/10/16 13:10:27;;;;;;;3.03;2.30;;;;;;;17.23;52.75;96483.88;6433324;46;20104;-76
2021/10/16 13:15:29;;;;;;;1.98;1.88;;;;;;;16.81;52.11;96496.63;6431498;46;20120;-77
2021/10/16 13:20:33;;;;;;;4.38;1.95;;;;;;;17.41;50.94;96492.56;6434461;46;20205;-73
2021/10/16 13:25:37;;;;;;;2.30;2.10;;;;;;;17.04;52.14;96484.31;6411875;46;20183;-73
2021/10/16 13:30:40;;;;;;;2.80;1.55;;;;;;;16.43;56.32;96489.53;6429058;46;20090;-74
2021/10/16 13:35:42;;;;;;;2.00;1.90;;;;;;;16.21;54.45;96480.22;6427706;46;20104;-75
2021/10/16 13:40:46;;;;;;;2.28;2.10;;;;;;;16.61;53.10;96482.81;6428502;46;20127;-73
2021/10/16 13:45:49;;;;;;;3.50;2.30;;;;;;;17.38;50.54;96479.59;6428695;46;20108;-73
2021/10/16 13:50:51;;;;;;;2.42;2.22;;;;;;;18.56;48.77;96480.00;6428323;46;20086;-73
2021/10/16 13:55:53;;;;;;;1.77;1.67;;;;;;;19.69;46.25;96470.66;6432333;46;20559;-75
2021/10/16 14:00:56;;;;;;;2.55;2.35;;;;;;;19.46;45.54;96467.22;6433006;46;20102;-73
2021/10/16 14:05:58;;;;;;;3.08;2.45;;;;;;;19.72;45.91;96475.97;6431414;46;20130;-72
2021/10/16 14:11:01;;;;;;;2.40;2.20;;;;;;;19.46;45.64;96480.47;6433207;46;20750;-73
2021/10/16 14:16:03;;;;;;;2.22;2.10;;;;;;;18.68;48.62;96479.97;6431289;46;20086;-74
2021/10/16 14:21:06;;;;;;;2.08;1.90;;;;;;;16.83;51.53;96471.75;6431705;46;20685;-74
2021/10/16 14:26:09;;;;;;;2.25;2.15;;;;;;;16.07;53.01;96470.75;6430066;46;20108;-75
2021/10/16 14:31:11;;;;;;;2.33;2.03;;;;;;;15.72;56.95;96468.16;6431230;46;20108;-74
2021/10/16 14:36:14;;;;;;;2.35;2.15;;;;;;;15.53;56.93;96472.56;6432673;46;20082;-74
2021/10/16 14:41:16;;;;;;;2.28;2.13;;;;;;;15.06;58.24;96465.41;6420104;46;20107;-73
2021/10/16 14:46:18;;;;;;;1.85;1.75;;;;;;;15.00;60.21;96474.94;6432044;46;20095;-74
2021/10/16 14:51:21;;;;;;;3.55;1.90;;;;;;;15.01;60.54;96470.94;6431040;46;20091;-73
2021/10/16 14:56:25;;;;;;;2.45;2.00;;;;;;;14.81;62.13;96466.09;6433312;46;20095;-74
2021/10/16 15:01:27;;;;;;;2.20;2.05;;;;;;;14.65;61.17;96463.13;6433884;46;20091;-73
2021/10/16 15:06:30;;;;;;;2.70;2.40;;;;;;;14.51;61.97;96472.28;6420622;46;20102;-73
2021/10/16 15:11:33;;;;;;;1.98;1.88;;;;;;;14.41;63.55;96468.09;6432647;46;20099;-73
2021/10/16 15:16:36;;;;;;;2.30;2.10;;;;;;;14.26;64.98;96468.09;6433488;46;20090;-74
2021/10/16 15:21:38;;;;;;;3.50;3.20;;;;;;;14.11;63.93;96479.25;6433868;46;20107;-73
2021/10/16 15:26:41;;;;;;;3.67;2.95;;;;;;;13.96;67.46;96478.50;6433365;46;20149;-73
2021/10/16 15:31:43;;;;;;;2.78;2.58;;;;;;;13.83;66.22;96483.59;6433827;46;20126;-73
2021/10/16 15:36:47;;;;;;;2.70;2.45;;;;;;;13.61;67.54;96475.63;6433255;46;20099;-73
2021/10/16 15:41:50;;;;;;;2.92;2.33;;;;;;;13.40;69.73;96476.00;6432196;46;20104;-73
2021/10/16 15:46:52;;;;;;;2.40;2.20;;;;;;;13.26;70.40;96483.06;6431174;46;20538;-73
2021/10/16 15:51:54;;;;;;;2.33;2.15;;;;;;;13.02;71.06;96473.25;6431088;46;20186;-72
2021/10/16 15:56:57;;;;;;;2.65;2.30;;;;;;;12.79;73.39;96472.78;6431163;46;20094;-72
2021/10/16 16:02:00;;;;;;;3.15;2.60;;;;;;;12.65;73.41;96481.03;6432589;46;20091;-72
2021/10/16 16:07:03;;;;;;;2.58;2.17;;;;;;;12.52;73.57;96486.06;6432836;46;20220;-73
2021/10/16 16:12:05;;;;;;;5.00;2.30;;;;;;;12.19;76.29;96486.84;6420066;46;20100;-73
2021/10/16 16:17:08;;;;;;;3.33;2.33;;;;;;;12.07;77.36;96487.84;6433015;46;20108;-72
2021/10/16 16:22:11;;;;;;;3.03;2.08;;;;;;;11.85;79.06;96500.38;6433401;46;20090;-72
2021/10/16 16:27:18;;;;;;;2.00;1.88;;;;;;;11.58;81.68;96509.47;6432952;46;20090;-73
2021/10/16 16:32:20;;;;;;;2.53;2.08;;;;;;;11.32;83.17;96509.06;6433374;46;20100;-72
2021/10/16 16:37:23;;;;;;;2.53;2.22;;;;;;;11.03;84.74;96514.28;6433437;46;20086;-73
2021/10/16 16:42:25;;;;;;;5.70;2.15;;;;;;;10.78;86.21;96520.09;6431307;46;20086;-73
2021/10/16 16:47:28;;;;;;;2.30;1.70;;;;;;;10.59;87.21;96522.03;6430320;46;20099;-72
2021/10/16 16:52:30;;;;;;;3.13;2.10;;;;;;;10.46;87.64;96529.69;6419204;46;20090;-72
2021/10/16 16:57:34;;;;;;;1.88;1.67;;;;;;;10.41;88.26;96535.03;6429577;46;20674;-72
2021/10/16 17:02:38;;;;;;;2.05;1.75;;;;;;;10.22;88.75;96531.47;6431768;46;20090;-74
2021/10/16 17:07:41;;;;;;;2.67;1.70;;;;;;;10.07;89.40;96538.72;6428082;46;20094;-73
2021/10/16 17:12:43;;;;;;;1.70;1.60;;;;;;;9.80;90.00;96547.63;6430794;46;20086;-73
2021/10/16 17:17:45;;;;;;;1.70;1.50;;;;;;;9.62;90.63;96550.28;6429060;46;20538;-73
2021/10/16 17:22:52;;;;;;;1.60;1.50;;;;;;;9.68;90.92;96542.94;6431449;46;20760;-74
2021/10/16 17:27:54;;;;;;;3.25;1.50;;;;;;;9.67;91.05;96554.44;6430413;46;20635;-73
2021/10/16 17:32:58;;;;;;;2.90;1.65;;;;;;;9.44;91.67;96547.41;6431171;46;20511;-74
2021/10/16 17:38:00;;;;;;;1.48;1.38;;;;;;;9.24;91.93;96544.19;6426578;46;20618;-72
2021/10/16 17:43:03;;;;;;;2.55;1.90;;;;;;;9.05;92.47;96548.78;6428165;46;20090;-73
2021/10/16 17:48:05;;;;;;;1.50;1.40;;;;;;;8.93;92.91;96557.88;6428401;46;20100;-73
2021/10/16 17:53:08;;;;;;;3.88;1.60;;;;;;;8.88;92.77;96560.41;6429650;46;20253;-72
2021/10/16 17:58:10;;;;;;;6.82;2.00;;;;;;;8.92;92.85;96550.03;6431804;46;20224;-73
2021/10/16 18:03:13;;;;;;;1.98;1.77;;;;;;;8.88;93.13;96552.94;6430416;46;20091;-73
2021/10/16 18:08:15;;;;;;;1.52;1.42;;;;;;;8.66;93.33;96544.59;6431218;46;20086;-71
2021/10/16 18:13:18;;;;;;;2.13;1.50;;;;;;;8.62;94.07;96563.22;6418872;46;20109;-72
2021/10/16 18:18:21;;;;;;;3.15;2.22;;;;;;;8.48;94.29;96558.16;6430023;46;20090;-73
2021/10/16 18:23:24;;;;;;;1.60;1.50;;;;;;;8.40;94.35;96564.34;6428763;46;20697;-73
2021/10/16 18:28:27;;;;;;;2.63;2.05;;;;;;;8.34;94.78;96561.41;6430208;46;20702;-73
2021/10/16 18:33:29;;;;;;;1.40;1.33;;;;;;;8.30;95.23;96560.72;6433021;46;20634;-72
2021/10/16 18:38:31;;;;;;;1.73;1.63;;;;;;;8.23;94.93;96560.91;6428048;46;20113;-73
2021/10/16 18:43:34;;;;;;;2.28;1.63;;;;;;;8.08;95.19;96570.81;6428483;46;20100;-72
2021/10/16 18:48:36;;;;;;;7.22;1.80;;;;;;;8.01;96.96;96564.75;6432487;46;20577;-72
2021/10/16 18:53:39;;;;;;;1.98;1.70;;;;;;;8.01;96.16;96565.53;6429620;46;20094;-72
2021/10/16 18:58:41;;;;;;;1.83;1.73;;;;;;;7.92;95.62;96560.69;6429185;46;20638;-72
2021/10/16 19:03:43;;;;;;;2.40;1.80;;;;;;;7.89;95.70;96569.81;6433085;46;20086;-73
2021/10/16 19:08:47;;;;;;;1.85;1.75;;;;;;;7.88;95.49;96573.00;6433049;46;20639;-74
2021/10/16 19:13:49;;;;;;;1.75;1.65;;;;;;;7.72;94.77;96567.59;6432718;46;20662;-73
2021/10/16 19:18:51;;;;;;;1.38;1.33;;;;;;;7.53;95.01;96582.28;6432753;46;20109;-73
2021/10/16 19:23:54;;;;;;;1.77;1.67;;;;;;;7.48;95.41;96577.31;6432835;46;20103;-73
2021/10/16 19:28:56;;;;;;;2.13;2.03;;;;;;;7.44;95.85;96582.16;6419019;46;20104;-72
2021/10/16 19:33:58;;;;;;;6.72;2.22;;;;;;;7.47;95.34;96575.75;6431674;46;20795;-73
2021/10/16 19:39:01;;;;;;;3.53;2.08;;;;;;;7.46;94.79;96571.50;6433113;46;20108;-71
2021/10/16 19:44:03;;;;;;;5.65;2.10;;;;;;;7.31;94.87;96573.06;6431639;46;20560;-72
2021/10/16 19:49:06;;;;;;;2.30;2.10;;;;;;;7.26;95.89;96579.88;6432640;46;20099;-72
2021/10/16 19:54:10;;;;;;;3.05;2.53;;;;;;;7.31;95.25;96584.06;6432660;46;20534;-72
2021/10/16 19:59:12;;;;;;;3.55;2.60;;;;;;;7.16;95.39;96573.47;6431480;46;20096;-72
2021/10/16 20:04:15;;;;;;;2.58;2.17;;;;;;;7.05;96.10;96570.25;6433285;46;20094;-73
2021/10/16 20:09:17;;;;;;;1.90;1.75;;;;;;;7.12;95.84;96564.53;6417905;46;20108;-73
2021/10/16 20:14:20;;;;;;;2.53;2.33;;;;;;;7.03;95.34;96569.13;6431976;46;20183;-72
2021/10/16 20:19:22;;;;;;;2.78;2.42;;;;;;;6.93;95.38;96562.72;6429929;46;20112;-72
2021/10/16 20:24:25;;;;;;;2.92;2.63;;;;;;;6.78;95.62;96558.78;6433091;46;20612;-73
2021/10/16 20:29:28;;;;;;;2.63;2.30;;;;;;;6.72;95.72;96563.25;6432479;46;20625;-72
2021/10/16 20:34:31;;;;;;;2.78;2.58;;;;;;;6.75;96.25;96565.13;6429729;46;20536;-74
2021/10/16 20:39:36;;;;;;;2.60;2.40;;;;;;;6.69;95.60;96564.13;6428094;46;20099;-73
2021/10/16 20:44:39;;;;;;;2.78;2.38;;;;;;;6.66;95.32;96572.44;6430589;46;20099;-72
2021/10/16 20:49:41;;;;;;;3.13;2.85;;;;;;;6.52;95.93;96568.06;6431850;46;20082;-73
2021/10/16 20:54:44;;;;;;;3.03;2.17;;;;;;;6.47;95.52;96582.31;6431197;46;20094;-74
2021/10/16 20:59:46;;;;;;;2.88;2.58;;;;;;;6.43;95.21;96560.44;6432520;46;20528;-71
2021/10/16 21:04:48;;;;;;;2.85;2.65;;;;;;;6.38;95.95;96574.66;6432182;46;20090;-73
2021/10/16 21:09:51;;;;;;;2.63;2.42;;;;;;;6.32;95.93;96570.13;6431521;46;20649;-73
2021/10/16 21:14:53;;;;;;;3.88;2.92;;;;;;;6.24;95.65;96571.50;6432229;46;20099;-73
2021/10/16 21:19:55;;;;;;;3.08;2.80;;;;;;;6.13;95.46;96566.25;6432266;46;20528;-72
2021/10/16 21:24:58;;;;;;;3.17;2.85;;;;;;;6.15;95.57;96574.06;6432999;46;20113;-72
2021/10/16 21:30:01;;;;;;;2.83;2.60;;;;;;;6.11;95.07;96570.59;6432782;46;20095;-73
2021/10/16 21:35:03;;;;;;;2.90;2.60;;;;;;;6.07;95.27;96565.22;6432745;46;20550;-72
2021/10/16 21:40:06;;;;;;;2.88;2.67;;;;;;;6.04;94.71;96574.28;6432788;46;20135;-72
2021/10/16 21:45:09;;;;;;;3.92;3.10;;;;;;;5.90;95.01;96568.38;6419625;46;20122;-72
2021/10/16 21:50:12;;;;;;;5.20;3.10;;;;;;;5.82;95.71;96570.44;6432675;46;20657;-73
2021/10/16 21:55:14;;;;;;;4.35;3.65;;;;;;;5.91;95.33;96559.69;6433097;46;20098;-73
2021/10/16 22:00:28;;;;;;;4.97;3.78;;;;;;;5.94;95.19;96560.81;6432732;46;20529;-72
2021/10/16 22:05:30;;;;;;;4.50;3.47;;;;;;;5.69;95.73;96559.38;6432207;46;20679;-72
2021/10/16 22:10:34;;;;;;;4.50;4.07;;;;;;;5.79;95.78;96561.09;6430892;46;20108;-72
2021/10/16 22:15:37;;;;;;;4.40;3.90;;;;;;;5.76;95.58;96556.47;6433738;46;20109;-72
2021/10/16 22:20:42;;;;;;;5.22;4.15;;;;;;;5.75;95.22;96549.44;6434197;46;20181;-72
2021/10/16 22:25:45;;;;;;;5.15;4.20;;;;;;;5.66;94.79;96556.69;6433386;46;20584;-72
2021/10/16 22:30:47;;;;;;;8.23;4.10;;;;;;;5.53;95.04;96553.84;6436020;46;20510;-74
2021/10/16 22:35:50;;;;;;;3.78;3.47;;;;;;;5.50;95.51;96538.22;6434098;46;20108;-72
2021/10/16 22:40:52;;;;;;;3.90;3.55;;;;;;;5.48;95.01;96554.31;6434621;46;20701;-72
2021/10/16 22:45:55;;;;;;;3.92;3.63;;;;;;;5.37;95.13;96545.56;6434522;46;20104;-73
2021/10/16 22:50:58;;;;;;;4.65;4.00;;;;;;;5.41;95.42;96540.78;6433171;46;20653;-71
2021/10/16 22:56:01;;;;;;;4.53;3.58;;;;;;;5.39;94.79;96548.66;6433895;46;20086;-72
2021/10/16 23:01:06;;;;;;;3.10;2.80;;;;;;;5.27;94.50;96541.06;6434217;46;20086;-72
2021/10/16 23:06:09;;;;;;;3.75;3.45;;;;;;;5.26;94.92;96538.75;6434046;46;20104;-73
2021/10/16 23:11:13;;;;;;;5.13;3.42;;;;;;;5.18;94.62;96542.84;6434020;46;20653;-73
2021/10/16 23:16:15;;;;;;;5.55;4.65;;;;;;;5.13;95.81;96535.09;6433549;46;20095;-72
2021/10/16 23:21:18;;;;;;;5.25;4.32;;;;;;;5.18;95.28;96532.63;6434141;46;20760;-72
2021/10/16 23:26:20;;;;;;;5.13;4.43;;;;;;;5.18;94.70;96534.63;6433856;46;20099;-72
2021/10/16 23:31:23;;;;;;;4.75;4.28;;;;;;;5.07;94.59;96545.75;6434065;46;20090;-73
2021/10/16 23:36:25;;;;;;;4.20;3.78;;;;;;;4.97;94.67;96544.00;6433420;46;20653;-72
2021/10/16 23:41:27;;;;;;;5.53;4.47;;;;;;;4.98;94.94;96542.81;6433830;46;20538;-73
2021/10/16 23:46:30;;;;;;;3.97;3.53;;;;;;;4.91;94.58;96542.94;6433539;46;20653;-73
2021/10/16 23:51:32;;;;;;;5.40;4.53;;;;;;;4.83;94.98;96547.00;6433784;46;20100;-73
2021/10/16 23:56:34;;;;;;;6.05;4.47;;;;;;;4.89;95.69;96550.78;6420421;46;20090;-72
